Time;durP1;ratioP1;P1;durP2;ratioP2;P2;SDS_P1;SDS_P2;PMS_P1;PMS_P2;Temp;Humidity;BMP_temperature;BMP_pressure;BME280_temperature;BME280_humidity;BME280_pressure;Samples;Min_cycle;Max_cycle;Signal;HPM_P1;HPM_P2
2023/04/12 00:00:59;;;;;;;63.88;30.67;;;;;;;;;;5054828;28;20031;-70
2023/04/12 00:03:27;;;;;;;66.07;29.08;;;;;;;;;;5065605;28;20581;-71
2023/04/12 00:05:53;;;;;;;58.90;27.60;;;;;;;;;;5053434;28;20071;-71
2023/04/12 00:08:23;;;;;;;63.75;27.58;;;;;;;;;;5053027;28;20459;-69
2023/04/12 00:10:49;;;;;;;71.65;29.77;;;;;;;;;;5053091;28;20374;-71
2023/04/12 00:13:16;;;;;;;60.88;27.40;;;;;;;;;;5052790;28;20116;-71
2023/04/12 00:15:42;;;;;;;59.40;27.20;;;;;;;;;;5053179;28;20017;-71
2023/04/12 00:18:08;;;;;;;57.25;25.33;;;;;;;;;;5053324;28;20029;-70
2023/04/12 00:20:34;;;;;;;61.22;27.63;;;;;;;;;;5052939;28;20052;-71
2023/04/12 00:23:01;;;;;;;50.88;24.77;;;;;;;;;;5052897;28;20063;-71
2023/04/12 00:25:27;;;;;;;59.80;26.25;;;;;;;;;;5052974;28;20029;-71
2023/04/12 00:27:53;;;;;;;58.40;25.48;;;;;;;;;;5052843;28;20074;-71
2023/04/12 00:30:19;;;;;;;60.20;25.10;;;;;;;;;;5052880;28;20390;-70
2023/04/12 00:32:45;;;;;;;48.00;24.40;;;;;;;;;;5052294;28;20200;-71
2023/04/12 00:35:11;;;;;;;53.63;23.40;;;;;;;;;;5052359;28;20029;-71
2023/04/12 00:37:37;;;;;;;59.88;25.15;;;;;;;;;;5052038;28;20059;-72
2023/04/12 00:40:05;;;;;;;55.85;25.23;;;;;;;;;;5051149;28;20469;-72
2023/04/12 00:42:31;;;;;;;55.03;26.58;;;;;;;;;;5051456;28;20018;-72
2023/04/12 00:44:57;;;;;;;64.93;26.63;;;;;;;;;;5036471;28;20029;-72
2023/04/12 00:47:23;;;;;;;65.15;25.70;;;;;;;;;;5054724;28;20100;-72
2023/04/12 00:49:49;;;;;;;55.08;23.58;;;;;;;;;;5056111;28;20025;-72
2023/04/12 00:52:16;;;;;;;57.38;24.08;;;;;;;;;;5052256;28;20529;-72
2023/04/12 00:54:43;;;;;;;50.65;22.35;;;;;;;;;;5051010;28;20463;-71
2023/04/12 00:57:09;;;;;;;52.60;20.83;;;;;;;;;;5050795;28;20566;-71
2023/04/12 00:59:35;;;;;;;50.80;21.30;;;;;;;;;;5050959;28;20379;-71
2023/04/12 01:02:02;;;;;;;44.05;19.95;;;;;;;;;;5050676;28;20478;-71
2023/04/12 01:04:28;;;;;;;47.88;19.25;;;;;;;;;;5050815;28;20029;-71
2023/04/12 01:07:03;;;;;;;38.92;18.20;;;;;;;;;;5050893;28;20028;-71
2023/04/12 01:09:44;;;;;;;45.08;18.05;;;;;;;;;;5050647;28;20029;-70
2023/04/12 01:12:22;;;;;;;46.58;18.95;;;;;;;;;;5050902;28;20047;-70
2023/04/12 01:14:56;;;;;;;41.65;18.90;;;;;;;;;;5050787;28;20028;-70
2023/04/12 01:17:26;;;;;;;40.40;16.75;;;;;;;;;;5051053;28;20017;-72
2023/04/12 01:19:53;;;;;;;42.38;17.80;;;;;;;;;;5050831;28;20059;-69
2023/04/12 01:22:37;;;;;;;40.15;18.15;;;;;;;;;;5050449;28;20020;-72
2023/04/12 01:25:11;;;;;;;37.78;17.27;;;;;;;;;;5051127;28;20048;-70
2023/04/12 01:27:48;;;;;;;42.40;17.85;;;;;;;;;;5051245;28;20114;-69
2023/04/12 01:30:16;;;;;;;37.65;15.38;;;;;;;;;;5050616;28;20021;-69
2023/04/12 01:32:44;;;;;;;34.45;16.08;;;;;;;;;;5051301;28;20021;-70
2023/04/12 01:35:10;;;;;;;43.10;15.10;;;;;;;;;;5050569;28;20103;-70
2023/04/12 01:37:36;;;;;;;37.85;15.02;;;;;;;;;;5050580;28;20086;-71
2023/04/12 01:40:06;;;;;;;36.63;14.95;;;;;;;;;;5050377;28;20109;-71
2023/04/12 01:42:32;;;;;;;34.95;13.27;;;;;;;;;;5051664;28;20074;-71
2023/04/12 01:44:58;;;;;;;33.53;14.43;;;;;;;;;;5054536;28;20033;-70
2023/04/12 01:47:24;;;;;;;29.63;13.57;;;;;;;;;;5054341;28;20479;-70
2023/04/12 01:50:09;;;;;;;36.42;13.57;;;;;;;;;;5054284;28;20069;-70
2023/04/12 01:52:39;;;;;;;32.08;13.43;;;;;;;;;;5054011;28;20025;-71
2023/04/12 01:55:06;;;;;;;36.50;14.35;;;;;;;;;;5054239;28;20021;-70
2023/04/12 01:57:33;;;;;;;31.08;13.02;;;;;;;;;;5053277;28;20033;-70
2023/04/12 02:00:02;;;;;;;30.13;11.93;;;;;;;;;;5054302;28;20353;-71
2023/04/12 02:02:28;;;;;;;25.60;10.90;;;;;;;;;;5053908;28;20036;-71
2023/04/12 02:04:54;;;;;;;26.27;9.68;;;;;;;;;;5054104;28;20033;-71
2023/04/12 02:07:21;;;;;;;22.73;9.05;;;;;;;;;;5054210;28;20021;-70
2023/04/12 02:09:46;;;;;;;20.27;8.65;;;;;;;;;;5054027;28;20514;-71
2023/04/12 02:12:12;;;;;;;26.02;8.48;;;;;;;;;;5054227;28;20056;-71
2023/04/12 02:14:38;;;;;;;15.52;7.43;;;;;;;;;;5056081;28;20021;-72
2023/04/12 02:17:04;;;;;;;21.23;7.15;;;;;;;;;;5055608;28;20028;-72
2023/04/12 02:19:31;;;;;;;23.73;7.82;;;;;;;;;;5055684;28;20052;-70
2023/04/12 02:21:57;;;;;;;14.75;6.75;;;;;;;;;;5037108;28;20036;-70
2023/04/12 02:24:23;;;;;;;19.88;7.20;;;;;;;;;;5055915;28;20170;-72
2023/04/12 02:26:49;;;;;;;25.23;7.65;;;;;;;;;;5055064;28;20364;-71
2023/04/12 02:29:16;;;;;;;21.23;7.32;;;;;;;;;;5055208;28;20056;-73
2023/04/12 02:31:42;;;;;;;24.27;6.80;;;;;;;;;;5053304;28;20021;-73
2023/04/12 02:34:08;;;;;;;22.35;7.97;;;;;;;;;;5067746;28;20493;-72
2023/04/12 02:36:36;;;;;;;20.27;7.70;;;;;;;;;;5055595;28;20028;-71
2023/04/12 02:39:02;;;;;;;20.83;8.23;;;;;;;;;;5055611;28;20087;-70
2023/04/12 02:41:29;;;;;;;20.00;7.50;;;;;;;;;;5037094;28;20033;-72
2023/04/12 02:43:55;;;;;;;27.33;8.85;;;;;;;;;;5036862;28;20037;-71
2023/04/12 02:46:26;;;;;;;20.15;8.38;;;;;;;;;;5054439;28;20100;-71
2023/04/12 02:48:52;;;;;;;25.38;7.78;;;;;;;;;;5054776;28;20063;-71
2023/04/12 02:51:18;;;;;;;28.75;8.57;;;;;;;;;;5054616;28;20028;-72
2023/04/12 02:53:44;;;;;;;21.67;7.90;;;;;;;;;;5053898;28;20502;-71
2023/04/12 02:56:10;;;;;;;27.67;8.07;;;;;;;;;;5055562;28;20055;-72
2023/04/12 02:58:37;;;;;;;19.60;6.72;;;;;;;;;;5054544;28;20112;-72
2023/04/12 03:01:06;;;;;;;14.20;6.13;;;;;;;;;;5054161;28;20036;-72
2023/04/12 03:03:33;;;;;;;22.88;7.35;;;;;;;;;;5054176;28;20021;-72
2023/04/12 03:05:59;;;;;;;20.17;4.93;;;;;;;;;;5053982;28;20036;-72
2023/04/12 03:08:25;;;;;;;22.25;5.90;;;;;;;;;;5053669;28;20506;-72
2023/04/12 03:10:51;;;;;;;15.15;4.70;;;;;;;;;;5054020;28;20029;-72
2023/04/12 03:13:17;;;;;;;16.77;4.47;;;;;;;;;;5054059;28;20029;-71
2023/04/12 03:15:43;;;;;;;13.57;4.32;;;;;;;;;;5073906;28;20029;-71
2023/04/12 03:18:09;;;;;;;15.70;4.18;;;;;;;;;;5074065;28;20035;-70
2023/04/12 03:20:37;;;;;;;19.20;4.68;;;;;;;;;;5073745;28;20082;-71
2023/04/12 03:23:04;;;;;;;14.13;4.30;;;;;;;;;;5073478;28;20024;-71
2023/04/12 03:25:30;;;;;;;20.45;4.43;;;;;;;;;;5073351;28;20028;-71
2023/04/12 03:27:56;;;;;;;19.58;4.63;;;;;;;;;;5073600;28;20025;-71
2023/04/12 03:30:22;;;;;;;18.08;4.25;;;;;;;;;;5073271;28;20478;-72
2023/04/12 03:32:48;;;;;;;17.92;4.00;;;;;;;;;;5072602;28;20482;-71
2023/04/12 03:35:14;;;;;;;20.90;4.72;;;;;;;;;;5072970;28;20067;-70
2023/04/12 03:37:41;;;;;;;16.08;4.50;;;;;;;;;;5073538;28;20020;-70
2023/04/12 03:40:08;;;;;;;19.30;4.05;;;;;;;;;;5073463;28;20025;-71
2023/04/12 03:42:34;;;;;;;18.42;4.53;;;;;;;;;;5073273;28;20035;-70
2023/04/12 03:45:00;;;;;;;24.17;5.38;;;;;;;;;;5073715;28;20024;-71
2023/04/12 03:47:26;;;;;;;20.02;5.28;;;;;;;;;;5073326;28;20021;-70
2023/04/12 03:49:54;;;;;;;16.75;5.10;;;;;;;;;;5072877;28;20032;-70
2023/04/12 03:52:20;;;;;;;18.25;4.80;;;;;;;;;;5072784;28;20033;-70
2023/04/12 03:54:46;;;;;;;15.05;4.85;;;;;;;;;;5073177;28;20028;-69
2023/04/12 03:57:12;;;;;;;16.52;4.88;;;;;;;;;;5073120;28;20029;-69
2023/04/12 03:59:38;;;;;;;19.33;4.45;;;;;;;;;;5072892;28;20020;-70
2023/04/12 04:02:05;;;;;;;15.55;4.40;;;;;;;;;;5072443;28;20032;-72
2023/04/12 04:04:31;;;;;;;12.98;4.07;;;;;;;;;;5072587;28;20489;-71
2023/04/12 04:06:57;;;;;;;12.32;3.85;;;;;;;;;;5072862;28;20059;-70
2023/04/12 04:09:23;;;;;;;23.00;4.40;;;;;;;;;;5072432;28;20059;-70
2023/04/12 04:11:50;;;;;;;19.55;3.92;;;;;;;;;;5072265;28;20463;-71
2023/04/12 04:14:16;;;;;;;15.40;3.65;;;;;;;;;;5072684;28;20541;-69
2023/04/12 04:16:42;;;;;;;12.80;3.70;;;;;;;;;;5072647;28;20028;-70
2023/04/12 04:19:08;;;;;;;14.02;3.90;;;;;;;;;;5072510;28;20025;-69
2023/04/12 04:21:34;;;;;;;21.25;3.45;;;;;;;;;;5072381;28;20367;-70
2023/04/12 04:24:01;;;;;;;12.10;3.20;;;;;;;;;;5072210;28;20021;-69
2023/04/12 04:26:32;;;;;;;15.45;3.53;;;;;;;;;;5072341;28;20033;-71
2023/04/12 04:29:02;;;;;;;19.33;3.30;;;;;;;;;;5072551;28;20031;-73
2023/04/12 04:31:35;;;;;;;13.55;3.40;;;;;;;;;;5061219;28;20025;-73
2023/04/12 04:34:02;;;;;;;17.27;3.13;;;;;;;;;;5063714;28;20033;-74
2023/04/12 04:36:29;;;;;;;10.65;3.85;;;;;;;;;;5065408;28;20031;-72
2023/04/12 04:38:56;;;;;;;14.82;2.78;;;;;;;;;;5060146;28;20057;-71
2023/04/12 04:41:23;;;;;;;17.60;3.47;;;;;;;;;;5053955;28;20135;-73
2023/04/12 04:43:49;;;;;;;18.00;2.90;;;;;;;;;;5060076;28;20386;-74
2023/04/12 04:46:16;;;;;;;14.07;2.88;;;;;;;;;;5060429;28;20074;-73
2023/04/12 04:48:42;;;;;;;12.40;3.08;;;;;;;;;;5055085;28;20051;-73
2023/04/12 04:51:08;;;;;;;15.95;3.40;;;;;;;;;;5064723;28;20056;-75
2023/04/12 04:53:35;;;;;;;8.23;2.58;;;;;;;;;;5044876;28;20028;-73
2023/04/12 04:56:01;;;;;;;9.88;2.60;;;;;;;;;;5054362;28;20055;-74
2023/04/12 04:58:27;;;;;;;11.32;2.88;;;;;;;;;;5071254;28;20063;-71
2023/04/12 05:00:56;;;;;;;14.73;3.08;;;;;;;;;;5060296;28;20025;-72
2023/04/12 05:03:22;;;;;;;10.90;2.80;;;;;;;;;;5051891;28;20035;-71
2023/04/12 05:05:51;;;;;;;9.63;2.80;;;;;;;;;;5034715;28;20021;-71
2023/04/12 05:08:17;;;;;;;11.02;2.50;;;;;;;;;;5053170;28;20304;-72
2023/04/12 05:10:43;;;;;;;16.23;2.50;;;;;;;;;;5053058;28;20048;-72
2023/04/12 05:13:09;;;;;;;14.35;3.58;;;;;;;;;;5052888;28;20060;-71
2023/04/12 05:15:35;;;;;;;14.07;3.08;;;;;;;;;;5052221;28;20032;-72
2023/04/12 05:18:01;;;;;;;14.20;2.60;;;;;;;;;;5051408;28;20017;-72
2023/04/12 05:20:27;;;;;;;13.15;2.83;;;;;;;;;;5052123;28;20068;-73
2023/04/12 05:22:53;;;;;;;15.38;2.80;;;;;;;;;;5061436;28;20498;-72
2023/04/12 05:25:19;;;;;;;13.43;2.97;;;;;;;;;;5063928;28;20126;-73
2023/04/12 05:27:46;;;;;;;14.15;3.05;;;;;;;;;;5062178;28;20105;-72
2023/04/12 05:30:12;;;;;;;13.35;2.90;;;;;;;;;;5059073;28;20036;-72
2023/04/12 05:32:38;;;;;;;15.10;3.00;;;;;;;;;;5060318;28;20025;-73
2023/04/12 05:35:05;;;;;;;18.98;2.97;;;;;;;;;;5062609;28;20083;-71
2023/04/12 05:37:31;;;;;;;13.27;3.25;;;;;;;;;;5062661;28;20021;-72
2023/04/12 05:39:57;;;;;;;8.63;2.90;;;;;;;;;;5058340;28;20029;-75
2023/04/12 05:42:23;;;;;;;16.60;2.80;;;;;;;;;;5062971;28;20024;-73
2023/04/12 05:44:49;;;;;;;8.88;3.10;;;;;;;;;;5059201;28;20505;-73
2023/04/12 05:47:16;;;;;;;10.48;2.90;;;;;;;;;;5064355;28;20029;-74
2023/04/12 05:49:42;;;;;;;13.43;3.42;;;;;;;;;;5067551;28;20033;-73
2023/04/12 05:52:08;;;;;;;11.60;3.55;;;;;;;;;;5060482;28;20549;-74
2023/04/12 05:54:34;;;;;;;11.25;2.55;;;;;;;;;;5063237;28;20487;-72
2023/04/12 05:57:00;;;;;;;9.77;2.50;;;;;;;;;;5061265;28;20032;-72
2023/04/12 05:59:26;;;;;;;17.60;3.58;;;;;;;;;;5064984;28;20025;-71
2023/04/12 06:01:52;;;;;;;8.30;2.72;;;;;;;;;;5061396;28;20390;-71
2023/04/12 06:04:18;;;;;;;8.27;2.70;;;;;;;;;;5063839;28;20025;-71
2023/04/12 06:06:44;;;;;;;20.00;3.22;;;;;;;;;;5064063;28;20028;-73
2023/04/12 06:09:11;;;;;;;10.07;2.63;;;;;;;;;;5060755;28;20037;-72
2023/04/12 06:11:38;;;;;;;12.40;3.10;;;;;;;;;;5066698;28;20111;-74
2023/04/12 06:14:04;;;;;;;10.85;2.97;;;;;;;;;;5066559;28;20021;-74
2023/04/12 06:16:30;;;;;;;16.60;3.15;;;;;;;;;;5061166;28;20500;-73
2023/04/12 06:18:56;;;;;;;15.02;2.92;;;;;;;;;;5065748;28;20037;-72
2023/04/12 06:21:22;;;;;;;25.90;3.38;;;;;;;;;;5056310;28;20044;-71
2023/04/12 06:23:48;;;;;;;12.48;3.33;;;;;;;;;;5052249;28;20029;-74
2023/04/12 06:26:14;;;;;;;12.45;3.38;;;;;;;;;;5055723;28;20040;-72
2023/04/12 06:28:40;;;;;;;19.60;2.92;;;;;;;;;;5063763;28;20033;-73
2023/04/12 06:31:06;;;;;;;16.25;2.75;;;;;;;;;;5058977;28;20040;-73
2023/04/12 06:33:32;;;;;;;17.83;2.35;;;;;;;;;;5054386;28;20021;-70
2023/04/12 06:35:59;;;;;;;10.55;3.22;;;;;;;;;;5055167;28;20025;-70
2023/04/12 06:38:25;;;;;;;10.05;3.40;;;;;;;;;;5056217;28;20091;-73
2023/04/12 06:40:51;;;;;;;11.13;2.90;;;;;;;;;;5054234;28;20453;-72
2023/04/12 06:43:19;;;;;;;12.48;3.25;;;;;;;;;;5054125;28;20095;-71
2023/04/12 06:45:45;;;;;;;15.65;3.13;;;;;;;;;;5055487;28;20025;-74
2023/04/12 06:48:11;;;;;;;13.85;3.40;;;;;;;;;;5041747;28;20033;-72
2023/04/12 06:50:37;;;;;;;11.82;3.10;;;;;;;;;;5042631;28;20025;-72
2023/04/12 06:53:03;;;;;;;13.25;3.33;;;;;;;;;;5061976;28;20029;-73
2023/04/12 06:55:29;;;;;;;11.98;3.20;;;;;;;;;;5061074;28;20029;-71
2023/04/12 06:57:56;;;;;;;16.52;3.65;;;;;;;;;;5053558;28;20029;-72
2023/04/12 07:00:22;;;;;;;12.80;3.45;;;;;;;;;;5052880;28;20101;-71
2023/04/12 07:02:48;;;;;;;13.85;4.03;;;;;;;;;;5034998;28;20061;-71
2023/04/12 07:05:14;;;;;;;18.52;4.07;;;;;;;;;;5053334;28;20045;-71
2023/04/12 07:07:40;;;;;;;13.13;3.03;;;;;;;;;;5053106;28;20029;-71
2023/04/12 07:10:07;;;;;;;13.25;3.63;;;;;;;;;;5053034;28;20095;-73
2023/04/12 07:12:33;;;;;;;14.35;4.00;;;;;;;;;;5053870;28;20651;-70
2023/04/12 07:14:59;;;;;;;12.82;3.45;;;;;;;;;;5062801;28;20025;-71
2023/04/12 07:17:25;;;;;;;22.05;4.15;;;;;;;;;;5052728;28;20501;-70
2023/04/12 07:19:52;;;;;;;16.98;3.22;;;;;;;;;;5054370;28;20090;-72
2023/04/12 07:22:18;;;;;;;18.88;3.38;;;;;;;;;;5037261;28;20032;-70
2023/04/12 07:24:44;;;;;;;12.95;3.30;;;;;;;;;;5052553;28;20033;-70
2023/04/12 07:27:10;;;;;;;16.98;3.00;;;;;;;;;;5053601;28;20029;-71
2023/04/12 07:29:36;;;;;;;13.65;2.90;;;;;;;;;;5055095;28;20108;-72
2023/04/12 07:32:03;;;;;;;12.15;3.17;;;;;;;;;;5059814;28;20116;-72
2023/04/12 07:34:29;;;;;;;12.85;3.60;;;;;;;;;;5073727;28;20032;-71
2023/04/12 07:36:55;;;;;;;15.88;3.15;;;;;;;;;;5073010;28;20091;-72
2023/04/12 07:39:22;;;;;;;14.10;3.47;;;;;;;;;;5072056;28;20031;-72
2023/04/12 07:41:49;;;;;;;10.02;3.22;;;;;;;;;;5072019;28;20024;-72
2023/04/12 07:44:15;;;;;;;12.73;3.55;;;;;;;;;;5072355;28;20025;-71
2023/04/12 07:46:41;;;;;;;13.75;4.03;;;;;;;;;;5072204;28;20025;-71
2023/04/12 07:49:09;;;;;;;17.25;4.30;;;;;;;;;;5071849;28;20074;-71
2023/04/12 07:51:35;;;;;;;12.70;3.60;;;;;;;;;;5072050;28;20023;-71
2023/04/12 07:54:02;;;;;;;18.00;3.67;;;;;;;;;;5071986;28;20028;-71
2023/04/12 07:56:28;;;;;;;17.15;3.28;;;;;;;;;;5072603;28;20020;-71
2023/04/12 07:58:54;;;;;;;21.67;6.00;;;;;;;;;;5072909;28;20035;-70
2023/04/12 08:01:20;;;;;;;10.30;3.20;;;;;;;;;;5054908;28;20033;-71
2023/04/12 08:03:46;;;;;;;16.35;3.90;;;;;;;;;;5072565;28;20028;-71
2023/04/12 08:06:12;;;;;;;13.02;3.85;;;;;;;;;;5055118;28;20029;-70
2023/04/12 08:08:38;;;;;;;10.18;3.05;;;;;;;;;;5072833;28;20040;-70
2023/04/12 08:11:05;;;;;;;11.57;3.38;;;;;;;;;;5073065;28;20052;-69
2023/04/12 08:13:32;;;;;;;14.07;3.17;;;;;;;;;;5072328;28;20048;-70
2023/04/12 08:15:58;;;;;;;15.52;3.75;;;;;;;;;;5073280;28;20027;-71
2023/04/12 08:18:24;;;;;;;13.63;3.85;;;;;;;;;;5072993;28;20096;-71
2023/04/12 08:20:50;;;;;;;12.90;3.88;;;;;;;;;;5072618;28;20082;-70
2023/04/12 08:23:17;;;;;;;17.92;3.85;;;;;;;;;;5072325;28;20486;-70
2023/04/12 08:25:43;;;;;;;12.50;3.42;;;;;;;;;;5072497;28;20035;-71
2023/04/12 08:28:09;;;;;;;13.93;3.70;;;;;;;;;;5072456;28;20549;-69
2023/04/12 08:30:35;;;;;;;20.55;4.07;;;;;;;;;;5074565;28;20027;-71
2023/04/12 08:33:01;;;;;;;16.00;3.92;;;;;;;;;;5074123;28;20147;-72
2023/04/12 08:35:27;;;;;;;18.02;4.13;;;;;;;;;;5074238;28;20031;-71
2023/04/12 08:37:53;;;;;;;16.60;3.95;;;;;;;;;;5075496;28;20027;-72
2023/04/12 08:40:20;;;;;;;11.77;3.20;;;;;;;;;;5073036;28;20031;-72
2023/04/12 08:42:47;;;;;;;20.13;3.90;;;;;;;;;;5072026;28;20507;-72
2023/04/12 08:45:13;;;;;;;24.25;3.85;;;;;;;;;;5072551;28;20032;-73
2023/04/12 08:47:43;;;;;;;12.38;3.53;;;;;;;;;;5072960;28;20028;-73
2023/04/12 08:50:12;;;;;;;12.90;3.30;;;;;;;;;;5072290;28;20031;-76
2023/04/12 08:52:38;;;;;;;14.00;3.53;;;;;;;;;;5052965;28;20032;-73
2023/04/12 08:55:05;;;;;;;20.45;3.28;;;;;;;;;;5069228;28;20020;-71
2023/04/12 08:57:31;;;;;;;16.60;3.65;;;;;;;;;;5059757;28;20079;-71
2023/04/12 09:00:02;;;;;;;13.20;4.20;;;;;;;;;;5051848;28;20029;-70
2023/04/12 09:02:28;;;;;;;15.50;3.22;;;;;;;;;;5051770;28;20025;-70
2023/04/12 09:04:55;;;;;;;8.15;3.33;;;;;;;;;;5051680;28;20027;-71
2023/04/12 09:07:29;;;;;;;16.70;3.65;;;;;;;;;;5051538;28;20090;-70
2023/04/12 09:09:55;;;;;;;13.77;3.58;;;;;;;;;;5051564;28;20518;-70
2023/04/12 09:12:23;;;;;;;16.45;3.60;;;;;;;;;;5051327;28;20033;-71
2023/04/12 09:15:04;;;;;;;12.50;3.50;;;;;;;;;;5051959;28;20067;-71
2023/04/12 09:17:32;;;;;;;9.45;3.13;;;;;;;;;;5051716;28;20024;-71
2023/04/12 09:19:58;;;;;;;15.02;3.38;;;;;;;;;;5051668;28;20609;-70
2023/04/12 09:22:34;;;;;;;15.77;3.47;;;;;;;;;;5051051;28;20115;-70
2023/04/12 09:25:00;;;;;;;14.30;3.47;;;;;;;;;;5051734;28;20029;-71
2023/04/12 09:27:28;;;;;;;16.98;3.95;;;;;;;;;;5051586;28;20152;-71
2023/04/12 09:30:20;;;;;;;14.00;3.50;;;;;;;;;;5051281;28;20040;-70
2023/04/12 09:32:52;;;;;;;12.88;3.15;;;;;;;;;;5047234;28;20051;-70
2023/04/12 09:35:18;;;;;;;16.42;3.45;;;;;;;;;;5050877;28;20067;-70
2023/04/12 09:37:44;;;;;;;17.92;3.55;;;;;;;;;;5052054;28;20017;-72
2023/04/12 09:40:10;;;;;;;12.18;3.42;;;;;;;;;;5052158;28;20025;-72
2023/04/12 09:42:48;;;;;;;12.30;3.22;;;;;;;;;;5051972;28;20025;-71
2023/04/12 09:45:22;;;;;;;15.07;3.10;;;;;;;;;;5053076;28;20048;-72
2023/04/12 09:47:48;;;;;;;16.13;3.42;;;;;;;;;;5035025;28;20078;-73
2023/04/12 09:50:21;;;;;;;10.48;3.60;;;;;;;;;;5036677;28;20033;-73
2023/04/12 09:52:47;;;;;;;19.05;3.42;;;;;;;;;;5057091;28;20017;-72
2023/04/12 09:55:14;;;;;;;18.77;5.15;;;;;;;;;;5054562;28;20078;-72
2023/04/12 09:57:40;;;;;;;17.13;5.53;;;;;;;;;;5053149;28;20086;-72
2023/04/12 10:00:17;;;;;;;17.38;4.57;;;;;;;;;;5053089;28;20048;-72
2023/04/12 10:02:47;;;;;;;19.15;5.25;;;;;;;;;;5053760;28;20025;-72
2023/04/12 10:05:15;;;;;;;11.77;4.53;;;;;;;;;;5057374;28;20036;-71
2023/04/12 10:07:42;;;;;;;13.88;4.30;;;;;;;;;;5055695;28;20021;-72
2023/04/12 10:10:08;;;;;;;12.27;3.85;;;;;;;;;;5055190;28;20057;-72
2023/04/12 10:12:39;;;;;;;14.48;4.10;;;;;;;;;;5054573;28;20025;-72
2023/04/12 10:15:11;;;;;;;12.70;3.53;;;;;;;;;;5055415;28;20096;-70
2023/04/12 10:17:40;;;;;;;12.15;3.58;;;;;;;;;;5055246;28;20021;-71
2023/04/12 10:20:06;;;;;;;17.33;3.90;;;;;;;;;;5055011;28;20033;-71
2023/04/12 10:22:32;;;;;;;11.85;3.33;;;;;;;;;;5054842;28;20033;-72
2023/04/12 10:24:59;;;;;;;13.38;4.05;;;;;;;;;;5055168;28;20755;-71
2023/04/12 10:27:26;;;;;;;11.73;3.88;;;;;;;;;;5054611;28;20021;-72
2023/04/12 10:29:52;;;;;;;9.73;3.42;;;;;;;;;;5054681;28;20047;-69
2023/04/12 10:32:22;;;;;;;16.23;3.15;;;;;;;;;;5054440;28;20028;-70
2023/04/12 10:34:52;;;;;;;17.88;3.83;;;;;;;;;;5055594;28;20491;-71
2023/04/12 10:37:18;;;;;;;11.52;3.58;;;;;;;;;;5055080;28;20051;-71
2023/04/12 10:39:46;;;;;;;12.73;3.22;;;;;;;;;;5054854;28;20033;-72
2023/04/12 10:42:22;;;;;;;20.05;3.75;;;;;;;;;;5054755;28;20021;-71
2023/04/12 10:44:50;;;;;;;16.98;3.58;;;;;;;;;;5054625;28;20024;-71
2023/04/12 10:47:36;;;;;;;15.63;3.53;;;;;;;;;;5054499;28;20029;-71
2023/04/12 10:50:23;;;;;;;13.88;3.10;;;;;;;;;;5054294;28;20040;-72
2023/04/12 10:53:08;;;;;;;17.90;2.95;;;;;;;;;;5054496;28;20021;-72
2023/04/12 10:55:34;;;;;;;13.52;2.95;;;;;;;;;;5054644;28;20029;-71
2023/04/12 10:58:00;;;;;;;11.98;3.22;;;;;;;;;;5036524;28;20123;-70
2023/04/12 11:00:46;;;;;;;12.85;3.45;;;;;;;;;;5054236;28;20393;-71
2023/04/12 11:03:13;;;;;;;18.17;4.65;;;;;;;;;;5053945;28;20028;-71
2023/04/12 11:05:58;;;;;;;19.08;3.33;;;;;;;;;;5054421;28;20705;-71
2023/04/12 11:08:26;;;;;;;13.65;3.60;;;;;;;;;;5054060;28;20025;-72
2023/04/12 11:10:51;;;;;;;16.02;3.45;;;;;;;;;;5054031;28;20091;-72
2023/04/12 11:13:19;;;;;;;15.65;3.85;;;;;;;;;;5054388;28;20467;-71
2023/04/12 11:15:45;;;;;;;11.60;3.25;;;;;;;;;;5053280;28;20021;-71
2023/04/12 11:18:11;;;;;;;16.45;3.30;;;;;;;;;;5054232;28;20029;-72
2023/04/12 11:20:39;;;;;;;11.10;3.47;;;;;;;;;;5054268;28;20099;-71
2023/04/12 11:23:05;;;;;;;21.98;8.05;;;;;;;;;;5053833;28;20017;-71
2023/04/12 11:25:31;;;;;;;15.32;4.53;;;;;;;;;;5054179;28;20025;-73
2023/04/12 11:28:00;;;;;;;11.48;3.45;;;;;;;;;;5054118;28;20024;-72
2023/04/12 11:30:26;;;;;;;17.35;3.40;;;;;;;;;;5054412;28;20033;-71
2023/04/12 11:32:52;;;;;;;18.23;4.05;;;;;;;;;;5053584;28;20100;-71
2023/04/12 11:35:23;;;;;;;19.77;3.75;;;;;;;;;;5036141;28;20471;-72
2023/04/12 11:37:49;;;;;;;12.77;3.50;;;;;;;;;;5054437;28;20482;-71
2023/04/12 11:40:15;;;;;;;14.68;3.60;;;;;;;;;;5036697;28;20035;-72
2023/04/12 11:42:41;;;;;;;13.98;3.65;;;;;;;;;;5054491;28;20021;-72
2023/04/12 11:45:10;;;;;;;15.98;3.63;;;;;;;;;;5054352;28;20086;-73
2023/04/12 11:47:42;;;;;;;14.38;3.38;;;;;;;;;;5054267;28;20030;-71
2023/04/12 11:50:09;;;;;;;11.00;3.92;;;;;;;;;;5053798;28;20036;-74
2023/04/12 11:52:35;;;;;;;10.60;3.80;;;;;;;;;;5063790;28;20013;-71
2023/04/12 11:55:09;;;;;;;14.68;4.80;;;;;;;;;;5054076;28;20094;-71
2023/04/12 11:57:35;;;;;;;13.07;4.10;;;;;;;;;;5053211;28;20025;-72
2023/04/12 12:00:05;;;;;;;19.00;4.05;;;;;;;;;;5052975;28;20159;-71
2023/04/12 12:02:33;;;;;;;13.07;4.22;;;;;;;;;;5052522;28;20155;-70
2023/04/12 12:04:59;;;;;;;15.18;4.35;;;;;;;;;;5053561;28;20458;-73
2023/04/12 12:07:25;;;;;;;12.52;3.63;;;;;;;;;;5053978;28;20025;-71
2023/04/12 12:09:51;;;;;;;11.82;3.58;;;;;;;;;;5052586;28;20517;-72
2023/04/12 12:12:17;;;;;;;11.07;3.50;;;;;;;;;;5052284;28;20025;-71
2023/04/12 12:14:46;;;;;;;13.55;5.10;;;;;;;;;;5052782;28;20025;-70
2023/04/12 12:17:13;;;;;;;9.93;4.35;;;;;;;;;;5052528;28;20425;-74
2023/04/12 12:19:40;;;;;;;16.50;4.15;;;;;;;;;;5053834;28;20083;-71
2023/04/12 12:22:12;;;;;;;14.82;4.20;;;;;;;;;;5052493;28;20024;-70
2023/04/12 12:24:39;;;;;;;12.52;4.15;;;;;;;;;;5055146;28;20043;-77
2023/04/12 12:27:05;;;;;;;13.20;4.30;;;;;;;;;;5035177;28;20029;-71
2023/04/12 12:29:36;;;;;;;9.38;4.13;;;;;;;;;;5054523;28;20028;-74
2023/04/12 12:32:03;;;;;;;12.18;3.75;;;;;;;;;;5037609;28;20029;-71
2023/04/12 12:34:33;;;;;;;17.73;5.22;;;;;;;;;;5052482;28;20025;-71
2023/04/12 12:36:59;;;;;;;13.82;4.35;;;;;;;;;;5054046;28;20021;-72
2023/04/12 12:39:25;;;;;;;6.22;3.10;;;;;;;;;;5054761;28;20029;-71
2023/04/12 12:41:55;;;;;;;15.00;4.35;;;;;;;;;;5052409;28;20036;-72
2023/04/12 12:44:22;;;;;;;10.07;3.67;;;;;;;;;;5055270;28;20309;-71
2023/04/12 12:46:48;;;;;;;12.52;4.03;;;;;;;;;;5067566;28;20025;-72
2023/04/12 12:49:14;;;;;;;9.82;3.35;;;;;;;;;;5065565;28;20056;-72
2023/04/12 12:51:41;;;;;;;8.75;3.28;;;;;;;;;;5058922;28;20017;-71
2023/04/12 12:54:07;;;;;;;11.13;3.50;;;;;;;;;;5061536;28;20025;-71
2023/04/12 12:56:36;;;;;;;14.80;3.67;;;;;;;;;;5063929;28;20021;-72
2023/04/12 12:59:02;;;;;;;17.40;3.72;;;;;;;;;;5071775;28;20024;-72
2023/04/12 13:01:28;;;;;;;10.07;3.72;;;;;;;;;;5049772;28;20025;-73
2023/04/12 13:03:54;;;;;;;14.27;4.10;;;;;;;;;;5065692;28;20433;-72
2023/04/12 13:06:21;;;;;;;10.88;4.13;;;;;;;;;;5044475;28;20031;-71
2023/04/12 13:08:47;;;;;;;14.65;4.43;;;;;;;;;;5066072;28;20064;-70
2023/04/12 13:11:13;;;;;;;16.90;5.20;;;;;;;;;;5064886;28;20052;-72
2023/04/12 13:13:39;;;;;;;12.93;5.40;;;;;;;;;;5063006;28;20023;-71
2023/04/12 13:16:06;;;;;;;16.88;4.82;;;;;;;;;;5065783;28;20021;-71
2023/04/12 13:18:32;;;;;;;13.43;4.90;;;;;;;;;;5061760;28;20028;-70
2023/04/12 13:20:58;;;;;;;21.75;8.38;;;;;;;;;;5058960;28;20028;-72
2023/04/12 13:23:24;;;;;;;14.98;4.90;;;;;;;;;;5059658;28;20431;-71
2023/04/12 13:25:50;;;;;;;12.88;4.70;;;;;;;;;;5066238;28;20482;-72
2023/04/12 13:28:16;;;;;;;18.85;6.13;;;;;;;;;;5066499;28;20058;-71
2023/04/12 13:30:42;;;;;;;17.40;5.75;;;;;;;;;;5060409;28;20115;-71
2023/04/12 13:33:08;;;;;;;12.57;5.30;;;;;;;;;;5059665;28;20021;-72
2023/04/12 13:35:34;;;;;;;12.27;5.80;;;;;;;;;;5061913;28;20104;-71
2023/04/12 13:38:00;;;;;;;12.85;5.20;;;;;;;;;;5063225;28;20032;-71
2023/04/12 13:40:26;;;;;;;18.70;5.75;;;;;;;;;;5067945;28;20029;-71
2023/04/12 13:42:52;;;;;;;12.60;5.25;;;;;;;;;;5073897;28;20028;-71
2023/04/12 13:45:18;;;;;;;15.18;5.43;;;;;;;;;;5066398;28;20032;-71
2023/04/12 13:47:44;;;;;;;15.45;5.57;;;;;;;;;;5068948;28;20187;-69
2023/04/12 13:50:10;;;;;;;20.55;5.20;;;;;;;;;;5068134;28;20442;-72
2023/04/12 13:52:36;;;;;;;18.70;5.05;;;;;;;;;;5065293;28;20021;-71
2023/04/12 13:55:06;;;;;;;13.05;4.47;;;;;;;;;;5069433;28;20037;-70
2023/04/12 13:57:33;;;;;;;14.43;4.30;;;;;;;;;;5076701;28;20024;-71
2023/04/12 13:59:59;;;;;;;16.75;5.25;;;;;;;;;;5063565;28;20032;-73
2023/04/12 14:02:25;;;;;;;12.48;4.80;;;;;;;;;;5061214;28;20532;-72
2023/04/12 14:04:52;;;;;;;12.60;4.80;;;;;;;;;;5058012;28;20029;-74
2023/04/12 14:07:19;;;;;;;11.27;4.35;;;;;;;;;;5057650;28;20029;-72
2023/04/12 14:09:45;;;;;;;13.73;4.30;;;;;;;;;;5057565;28;20025;-71
2023/04/12 14:12:11;;;;;;;12.57;4.18;;;;;;;;;;5057055;28;20024;-71
2023/04/12 14:14:37;;;;;;;10.75;4.70;;;;;;;;;;5065452;28;20104;-73
2023/04/12 14:17:03;;;;;;;16.10;4.75;;;;;;;;;;5077278;28;20130;-71
2023/04/12 14:19:29;;;;;;;9.05;4.30;;;;;;;;;;5077575;28;20459;-71
2023/04/12 14:21:55;;;;;;;14.00;4.22;;;;;;;;;;5077404;28;20524;-71
2023/04/12 14:24:21;;;;;;;11.38;4.20;;;;;;;;;;5059369;28;20371;-70
2023/04/12 14:26:49;;;;;;;8.40;3.90;;;;;;;;;;5077428;28;20025;-71
2023/04/12 14:29:16;;;;;;;7.80;3.80;;;;;;;;;;5077193;28;20020;-72